Time;durP1;ratioP1;P1;durP2;ratioP2;P2;SDS_P1;SDS_P2;PMS_P1;PMS_P2;Temp;Humidity;BMP_temperature;BMP_pressure;BME280_temperature;BME280_humidity;BME280_pressure;Samples;Min_cycle;Max_cycle;Signal;HPM_P1;HPM_P2
2021/03/11 00:02:01;;;;;;;23.63;15.50;;;;;;;;;;5054173;28;20544;-78
2021/03/11 00:04:27;;;;;;;24.13;16.07;;;;;;;;;;5054284;28;20192;-78
2021/03/11 00:06:53;;;;;;;24.33;14.97;;;;;;;;;;5054565;28;20273;-79
2021/03/11 00:09:19;;;;;;;23.50;15.03;;;;;;;;;;5054489;28;20181;-78
2021/03/11 00:11:45;;;;;;;24.80;15.93;;;;;;;;;;5054817;28;20188;-79
2021/03/11 00:14:11;;;;;;;23.40;15.40;;;;;;;;;;5048170;28;20188;-77
2021/03/11 00:16:36;;;;;;;24.37;14.60;;;;;;;;;;5053177;28;20268;-78
2021/03/11 00:19:02;;;;;;;21.93;14.33;;;;;;;;;;5069860;28;20178;-77
2021/03/11 00:21:28;;;;;;;25.20;14.63;;;;;;;;;;5057992;28;20626;-78
2021/03/11 00:23:54;;;;;;;22.70;13.80;;;;;;;;;;5056980;28;20264;-78
2021/03/11 00:26:21;;;;;;;24.87;14.73;;;;;;;;;;5057488;28;20559;-79
2021/03/11 00:28:47;;;;;;;23.77;12.97;;;;;;;;;;5057603;28;20237;-79
2021/03/11 00:31:12;;;;;;;24.10;14.60;;;;;;;;;;5074274;28;20238;-78
2021/03/11 00:33:38;;;;;;;23.27;13.90;;;;;;;;;;5056849;28;20208;-78
2021/03/11 00:36:05;;;;;;;26.30;15.20;;;;;;;;;;5057203;28;20230;-79
2021/03/11 00:38:31;;;;;;;20.67;11.70;;;;;;;;;;5057461;28;20558;-78
2021/03/11 00:40:57;;;;;;;26.13;15.33;;;;;;;;;;5057223;28;20188;-78
2021/03/11 00:43:23;;;;;;;22.67;13.83;;;;;;;;;;5057433;28;20186;-77
2021/03/11 00:45:49;;;;;;;20.50;13.20;;;;;;;;;;5057899;28;20192;-77
2021/03/11 00:48:15;;;;;;;23.80;14.53;;;;;;;;;;5057533;28;20209;-78
2021/03/11 00:50:41;;;;;;;22.23;13.23;;;;;;;;;;5057509;28;20597;-78
2021/03/11 00:53:07;;;;;;;23.87;14.13;;;;;;;;;;5089950;23;20302;-77
2021/03/11 00:55:33;;;;;;;25.20;14.97;;;;;;;;;;5084387;28;20220;-75
2021/03/11 00:57:59;;;;;;;22.77;14.80;;;;;;;;;;5085623;28;20177;-77
2021/03/11 01:00:25;;;;;;;22.77;15.67;;;;;;;;;;5076290;28;20184;-76
2021/03/11 01:02:51;;;;;;;26.97;15.90;;;;;;;;;;5092677;28;20250;-77
2021/03/11 01:05:19;;;;;;;25.97;14.93;;;;;;;;;;5087344;28;20257;-76
2021/03/11 01:07:45;;;;;;;21.43;13.10;;;;;;;;;;5080798;28;20182;-77
2021/03/11 01:10:11;;;;;;;25.70;15.03;;;;;;;;;;5082731;28;20527;-77
2021/03/11 01:12:37;;;;;;;25.30;15.60;;;;;;;;;;5085335;28;20200;-77
2021/03/11 01:15:04;;;;;;;25.97;15.77;;;;;;;;;;5076119;28;20184;-77
2021/03/11 01:17:30;;;;;;;27.67;16.33;;;;;;;;;;5093603;28;20258;-76
2021/03/11 01:19:56;;;;;;;25.23;15.50;;;;;;;;;;5092697;28;20308;-77
2021/03/11 01:22:21;;;;;;;24.83;14.53;;;;;;;;;;5092445;28;20222;-76
2021/03/11 01:24:47;;;;;;;26.77;16.03;;;;;;;;;;5092605;28;20181;-75
2021/03/11 01:27:13;;;;;;;27.17;15.30;;;;;;;;;;5075333;28;20180;-75
2021/03/11 01:29:39;;;;;;;24.47;15.83;;;;;;;;;;5092564;28;20258;-78
2021/03/11 01:32:05;;;;;;;24.87;15.57;;;;;;;;;;5092474;28;20213;-77
2021/03/11 01:34:31;;;;;;;24.60;15.47;;;;;;;;;;5090839;28;20711;-77
2021/03/11 01:36:57;;;;;;;23.00;15.10;;;;;;;;;;5083877;28;20176;-79
2021/03/11 01:39:23;;;;;;;25.07;16.37;;;;;;;;;;5093008;28;20187;-78
2021/03/11 01:41:49;;;;;;;24.37;14.63;;;;;;;;;;5092158;28;20693;-77
2021/03/11 01:44:15;;;;;;;24.57;15.93;;;;;;;;;;5092013;28;20177;-78
2021/03/11 01:46:41;;;;;;;27.10;16.00;;;;;;;;;;5093167;28;20187;-77
2021/03/11 01:49:07;;;;;;;25.40;15.93;;;;;;;;;;5074908;28;20173;-78
2021/03/11 01:51:33;;;;;;;26.73;15.93;;;;;;;;;;5093205;28;20204;-76
2021/03/11 01:53:59;;;;;;;26.00;16.00;;;;;;;;;;5092094;28;20205;-78
2021/03/11 01:56:25;;;;;;;24.63;14.57;;;;;;;;;;5091891;28;20173;-78
2021/03/11 01:58:51;;;;;;;25.80;16.10;;;;;;;;;;5092893;28;20175;-77
2021/03/11 02:01:17;;;;;;;26.07;15.03;;;;;;;;;;5091544;28;20199;-76
2021/03/11 02:03:43;;;;;;;25.87;15.50;;;;;;;;;;5091464;28;20218;-77
2021/03/11 02:06:09;;;;;;;25.27;14.70;;;;;;;;;;5074968;28;20188;-77
2021/03/11 02:08:35;;;;;;;22.00;14.57;;;;;;;;;;5091540;28;20181;-76
2021/03/11 02:11:01;;;;;;;21.33;13.50;;;;;;;;;;5093435;28;20180;-76
2021/03/11 02:13:37;;;;;;;21.90;14.47;;;;;;;;;;5093221;28;20212;-76
2021/03/11 02:16:16;;;;;;;23.83;13.73;;;;;;;;;;5091401;28;20184;-78
2021/03/11 02:18:52;;;;;;;20.73;12.97;;;;;;;;;;5074384;28;20168;-78
2021/03/11 02:21:21;;;;;;;23.47;13.77;;;;;;;;;;5091430;28;20180;-78
2021/03/11 02:24:06;;;;;;;21.80;14.10;;;;;;;;;;5091353;28;20663;-77
2021/03/11 02:26:32;;;;;;;22.70;13.07;;;;;;;;;;5091125;28;20203;-77
2021/03/11 02:28:58;;;;;;;19.47;11.67;;;;;;;;;;5091155;28;20649;-78
2021/03/11 02:31:25;;;;;;;20.07;13.50;;;;;;;;;;5091256;28;20677;-78
2021/03/11 02:33:51;;;;;;;22.13;12.90;;;;;;;;;;5074262;28;20286;-78
2021/03/11 02:36:17;;;;;;;19.07;12.37;;;;;;;;;;5091167;28;20173;-75
2021/03/11 02:38:44;;;;;;;21.23;13.23;;;;;;;;;;5091134;28;20195;-76
2021/03/11 02:41:10;;;;;;;18.40;12.60;;;;;;;;;;5080313;28;20247;-77
2021/03/11 02:43:36;;;;;;;19.80;12.93;;;;;;;;;;5034221;28;20653;-77
2021/03/11 02:46:02;;;;;;;19.00;12.30;;;;;;;;;;5034202;28;20553;-76
2021/03/11 02:48:28;;;;;;;18.37;12.17;;;;;;;;;;5053049;28;20174;-76
2021/03/11 02:50:54;;;;;;;18.53;11.57;;;;;;;;;;5050972;28;20319;-76
2021/03/11 02:53:20;;;;;;;18.47;11.50;;;;;;;;;;5034139;28;20221;-75
2021/03/11 02:55:46;;;;;;;19.77;12.87;;;;;;;;;;5050649;28;20249;-76
2021/03/11 02:58:12;;;;;;;17.43;11.13;;;;;;;;;;5050624;28;20174;-76
2021/03/11 03:00:39;;;;;;;19.00;11.70;;;;;;;;;;5034272;28;20175;-76
2021/03/11 03:03:05;;;;;;;18.20;11.27;;;;;;;;;;5033999;28;20265;-75
2021/03/11 03:05:31;;;;;;;17.50;11.37;;;;;;;;;;5050554;28;20222;-78
2021/03/11 03:07:57;;;;;;;18.90;11.57;;;;;;;;;;5033910;28;20216;-77
2021/03/11 03:10:24;;;;;;;19.43;11.53;;;;;;;;;;5033993;28;20187;-76
2021/03/11 03:12:50;;;;;;;16.47;10.83;;;;;;;;;;5050275;28;20214;-77
2021/03/11 03:15:16;;;;;;;18.00;11.13;;;;;;;;;;5050602;28;20202;-78
2021/03/11 03:17:44;;;;;;;15.13;10.33;;;;;;;;;;5050352;28;20605;-76
2021/03/11 03:20:10;;;;;;;18.43;10.13;;;;;;;;;;5050489;28;20651;-78
2021/03/11 03:22:36;;;;;;;16.67;9.73;;;;;;;;;;5050182;28;20201;-77
2021/03/11 03:25:03;;;;;;;18.23;10.47;;;;;;;;;;5033484;28;20540;-77
2021/03/11 03:27:29;;;;;;;14.37;7.97;;;;;;;;;;5051192;28;20181;-77
2021/03/11 03:29:55;;;;;;;16.40;10.27;;;;;;;;;;5051376;28;20237;-76
2021/03/11 03:32:22;;;;;;;14.40;9.27;;;;;;;;;;5049982;28;20217;-76
2021/03/11 03:34:47;;;;;;;15.83;10.67;;;;;;;;;;5050355;28;20635;-78
2021/03/11 03:37:13;;;;;;;11.47;7.67;;;;;;;;;;5049643;28;20244;-77
2021/03/11 03:39:39;;;;;;;15.83;10.10;;;;;;;;;;5050256;28;20200;-78
2021/03/11 03:42:05;;;;;;;17.37;9.40;;;;;;;;;;5050139;28;20198;-78
2021/03/11 03:44:33;;;;;;;14.90;9.37;;;;;;;;;;5050261;28;20252;-76
2021/03/11 03:47:00;;;;;;;14.23;9.13;;;;;;;;;;5050145;28;20177;-75
2021/03/11 03:49:26;;;;;;;13.00;8.83;;;;;;;;;;5033524;28;20179;-79
2021/03/11 03:51:53;;;;;;;12.03;8.23;;;;;;;;;;5049762;28;20220;-77
2021/03/11 03:54:22;;;;;;;13.10;7.63;;;;;;;;;;5033912;28;20187;-78
2021/03/11 03:56:50;;;;;;;14.77;9.50;;;;;;;;;;5037277;28;20188;-78
2021/03/11 03:59:16;;;;;;;8.00;5.77;;;;;;;;;;5053797;28;20179;-79
2021/03/11 04:01:42;;;;;;;16.00;9.70;;;;;;;;;;5053754;28;20215;-79
2021/03/11 04:04:09;;;;;;;14.47;8.70;;;;;;;;;;5037536;28;20714;-77
2021/03/11 04:06:35;;;;;;;16.20;9.50;;;;;;;;;;5053647;28;20178;-76
2021/03/11 04:09:03;;;;;;;13.03;8.90;;;;;;;;;;5054593;28;20186;-77
2021/03/11 04:11:29;;;;;;;14.07;8.50;;;;;;;;;;5054865;28;20276;-75
2021/03/11 04:13:54;;;;;;;13.23;8.40;;;;;;;;;;5053775;28;20293;-79
2021/03/11 04:16:20;;;;;;;16.67;9.57;;;;;;;;;;5037150;28;20651;-77
2021/03/11 04:18:46;;;;;;;15.77;9.03;;;;;;;;;;5036711;28;20643;-80
2021/03/11 04:21:12;;;;;;;15.13;8.37;;;;;;;;;;5053488;28;20257;-79
2021/03/11 04:23:38;;;;;;;13.27;8.67;;;;;;;;;;5036823;28;20555;-79
2021/03/11 04:26:04;;;;;;;14.93;9.47;;;;;;;;;;5053443;28;20207;-78
2021/03/11 04:28:30;;;;;;;11.00;7.47;;;;;;;;;;5053085;28;20650;-78
2021/03/11 04:30:57;;;;;;;13.27;8.30;;;;;;;;;;5036825;28;20273;-78
2021/03/11 04:33:23;;;;;;;12.00;8.47;;;;;;;;;;5053209;28;20198;-78
2021/03/11 04:35:49;;;;;;;12.97;8.37;;;;;;;;;;5053603;28;20182;-79
2021/03/11 04:38:15;;;;;;;11.73;7.87;;;;;;;;;;5036764;28;20185;-79
2021/03/11 04:40:41;;;;;;;11.50;7.63;;;;;;;;;;5036382;28;20181;-79
2021/03/11 04:43:07;;;;;;;9.07;6.47;;;;;;;;;;5053051;28;20209;-79
2021/03/11 04:45:33;;;;;;;11.67;7.33;;;;;;;;;;5053257;28;20178;-79
2021/03/11 04:47:59;;;;;;;10.27;7.47;;;;;;;;;;5052840;28;20182;-79
2021/03/11 04:50:25;;;;;;;9.23;7.20;;;;;;;;;;5053121;28;20289;-78
2021/03/11 04:52:51;;;;;;;9.97;6.77;;;;;;;;;;5053233;28;20289;-76
2021/03/11 04:55:16;;;;;;;9.70;6.43;;;;;;;;;;5053035;28;20174;-79
2021/03/11 04:57:42;;;;;;;11.10;6.80;;;;;;;;;;5052777;28;20181;-77
2021/03/11 05:00:09;;;;;;;7.13;5.30;;;;;;;;;;5052958;28;20245;-76
2021/03/11 05:02:35;;;;;;;9.10;6.50;;;;;;;;;;5036188;28;20237;-76
2021/03/11 05:05:02;;;;;;;9.13;6.37;;;;;;;;;;5052769;28;20216;-79
2021/03/11 05:07:28;;;;;;;9.20;6.80;;;;;;;;;;5052708;28;20183;-76
2021/03/11 05:09:54;;;;;;;7.90;5.77;;;;;;;;;;5052636;28;20196;-78
2021/03/11 05:12:20;;;;;;;9.23;7.13;;;;;;;;;;5053488;28;20209;-78
2021/03/11 05:14:45;;;;;;;11.13;7.60;;;;;;;;;;5036164;28;20174;-79
2021/03/11 05:17:11;;;;;;;8.27;5.57;;;;;;;;;;5053642;28;20174;-78
2021/03/11 05:19:37;;;;;;;9.73;6.77;;;;;;;;;;5053575;28;20179;-80
2021/03/11 05:22:03;;;;;;;11.47;7.73;;;;;;;;;;5035710;28;20256;-80
2021/03/11 05:24:29;;;;;;;11.73;8.20;;;;;;;;;;5035795;28;20174;-78
2021/03/11 05:26:55;;;;;;;9.70;7.30;;;;;;;;;;5035771;28;20174;-79
2021/03/11 05:29:21;;;;;;;11.27;8.90;;;;;;;;;;5053096;28;20674;-78
2021/03/11 05:31:47;;;;;;;10.37;7.50;;;;;;;;;;5052221;28;20201;-78
2021/03/11 05:34:13;;;;;;;11.83;8.70;;;;;;;;;;5052128;28;20213;-77
2021/03/11 05:36:39;;;;;;;17.20;9.27;;;;;;;;;;5053421;28;20166;-79
2021/03/11 05:39:06;;;;;;;10.70;7.43;;;;;;;;;;5051892;28;20174;-79
2021/03/11 05:41:34;;;;;;;10.77;7.97;;;;;;;;;;5051722;28;20200;-78
2021/03/11 05:44:00;;;;;;;14.00;8.13;;;;;;;;;;5051816;28;20231;-76
2021/03/11 05:46:25;;;;;;;12.93;9.60;;;;;;;;;;5035295;28;20187;-78
2021/03/11 05:48:52;;;;;;;8.50;6.10;;;;;;;;;;5042870;28;20181;-78
2021/03/11 05:51:18;;;;;;;13.43;8.77;;;;;;;;;;5062442;28;20217;-78
2021/03/11 05:53:44;;;;;;;11.03;8.43;;;;;;;;;;5062474;28;20253;-79
2021/03/11 05:56:09;;;;;;;11.47;7.90;;;;;;;;;;5060280;28;20216;-78
2021/03/11 05:58:35;;;;;;;11.87;8.90;;;;;;;;;;5064353;28;20177;-77
2021/03/11 06:01:02;;;;;;;11.57;8.87;;;;;;;;;;5060471;28;20256;-75
2021/03/11 06:03:31;;;;;;;11.30;7.93;;;;;;;;;;5059095;28;20247;-77
2021/03/11 06:05:57;;;;;;;11.87;8.50;;;;;;;;;;5072132;28;20193;-79
2021/03/11 06:08:23;;;;;;;13.63;5.80;;;;;;;;;;5067318;28;20188;-79
2021/03/11 06:10:52;;;;;;;10.17;8.03;;;;;;;;;;5061218;28;20231;-77
2021/03/11 06:13:18;;;;;;;11.37;7.90;;;;;;;;;;5061739;28;20202;-77
2021/03/11 06:15:44;;;;;;;11.27;8.10;;;;;;;;;;5049449;28;20178;-78
2021/03/11 06:18:10;;;;;;;9.93;7.10;;;;;;;;;;5059920;28;20180;-78
2021/03/11 06:20:36;;;;;;;8.77;6.60;;;;;;;;;;5061863;28;20269;-77
2021/03/11 06:23:02;;;;;;;7.40;5.93;;;;;;;;;;5061358;28;20543;-78
2021/03/11 06:25:28;;;;;;;9.70;7.03;;;;;;;;;;5050840;28;20178;-78
2021/03/11 06:27:54;;;;;;;9.07;6.50;;;;;;;;;;5045343;28;20189;-77
2021/03/11 06:30:30;;;;;;;8.03;6.33;;;;;;;;;;5034392;28;20252;-75
2021/03/11 06:32:56;;;;;;;7.47;4.83;;;;;;;;;;5051271;28;20589;-79
2021/03/11 06:35:22;;;;;;;7.27;5.33;;;;;;;;;;5051112;28;20592;-77
2021/03/11 06:37:48;;;;;;;7.00;4.93;;;;;;;;;;5051064;28;20226;-76
2021/03/11 06:40:21;;;;;;;6.30;4.83;;;;;;;;;;5052328;28;20178;-77
2021/03/11 06:42:48;;;;;;;6.97;5.17;;;;;;;;;;5050652;28;20562;-76
2021/03/11 06:45:20;;;;;;;6.97;5.20;;;;;;;;;;5067101;28;20189;-76
2021/03/11 06:47:46;;;;;;;6.30;4.37;;;;;;;;;;5068967;28;20268;-75
2021/03/11 06:50:12;;;;;;;4.37;3.97;;;;;;;;;;5068098;28;20210;-76
2021/03/11 06:52:38;;;;;;;5.53;4.23;;;;;;;;;;5064237;28;20240;-73
2021/03/11 06:55:05;;;;;;;7.40;4.90;;;;;;;;;;5066344;28;20187;-74
2021/03/11 06:57:31;;;;;;;4.30;3.73;;;;;;;;;;5062311;28;20669;-74
2021/03/11 06:59:58;;;;;;;6.53;3.83;;;;;;;;;;5067364;28;20178;-75
2021/03/11 07:02:24;;;;;;;6.93;4.47;;;;;;;;;;5059340;28;20209;-74
2021/03/11 07:04:50;;;;;;;45.00;22.70;;;;;;;;;;5071603;28;20189;-74
2021/03/11 07:07:20;;;;;;;249.83;107.20;;;;;;;;;;5093577;23;20313;-77
2021/03/11 07:09:47;;;;;;;60.27;34.37;;;;;;;;;;5055236;28;20669;-78
2021/03/11 07:12:13;;;;;;;9.13;7.73;;;;;;;;;;5040624;28;20269;-78
2021/03/11 07:14:39;;;;;;;15.10;13.50;;;;;;;;;;5061077;28;20211;-78
2021/03/11 07:17:21;;;;;;;9.70;7.03;;;;;;;;;;5053185;28;20201;-77
2021/03/11 07:20:06;;;;;;;10.40;8.37;;;;;;;;;;5028063;28;20187;-79
2021/03/11 07:22:32;;;;;;;8.10;6.40;;;;;;;;;;5061965;28;20533;-77
2021/03/11 07:24:58;;;;;;;7.70;5.67;;;;;;;;;;5060676;28;20182;-78
2021/03/11 07:27:24;;;;;;;7.53;5.50;;;;;;;;;;5054290;28;20209;-78
2021/03/11 07:30:03;;;;;;;9.97;8.30;;;;;;;;;;5037589;28;20197;-79
2021/03/11 07:32:29;;;;;;;8.67;7.70;;;;;;;;;;5035321;28;20236;-78
2021/03/11 07:34:55;;;;;;;9.70;7.50;;;;;;;;;;5035992;28;20201;-78
2021/03/11 07:37:22;;;;;;;11.97;8.27;;;;;;;;;;5054466;28;20718;-78
2021/03/11 07:39:48;;;;;;;9.43;7.70;;;;;;;;;;5038895;28;20191;-81
2021/03/11 07:42:14;;;;;;;9.20;6.80;;;;;;;;;;5035509;28;20177;-79
2021/03/11 07:44:40;;;;;;;8.93;5.50;;;;;;;;;;5052938;28;20181;-78
2021/03/11 07:47:06;;;;;;;20.23;14.30;;;;;;;;;;5052996;28;20268;-78
2021/03/11 07:49:32;;;;;;;39.83;25.57;;;;;;;;;;5055232;28;20210;-79
2021/03/11 07:51:59;;;;;;;17.83;14.00;;;;;;;;;;5051735;28;20179;-81
2021/03/11 07:54:25;;;;;;;23.33;15.77;;;;;;;;;;5037739;28;20219;-80
2021/03/11 07:56:51;;;;;;;11.80;8.73;;;;;;;;;;5054282;28;20200;-78
2021/03/11 07:59:17;;;;;;;16.93;14.57;;;;;;;;;;5055134;28;20179;-80
2021/03/11 08:01:54;;;;;;;15.33;12.47;;;;;;;;;;5055396;28;20535;-79
2021/03/11 08:04:20;;;;;;;24.73;19.93;;;;;;;;;;5050679;28;20191;-78
2021/03/11 08:06:46;;;;;;;26.70;20.23;;;;;;;;;;5053767;28;20226;-77
2021/03/11 08:09:12;;;;;;;22.77;17.77;;;;;;;;;;5046811;28;20183;-78
2021/03/11 08:11:41;;;;;;;11.57;9.40;;;;;;;;;;5043932;28;20662;-79
2021/03/11 08:14:17;;;;;;;32.30;26.73;;;;;;;;;;5061250;28;20213;-78
2021/03/11 08:16:42;;;;;;;31.83;25.90;;;;;;;;;;5056321;28;20611;-77
2021/03/11 08:19:08;;;;;;;13.57;10.60;;;;;;;;;;5054921;28;20179;-76
2021/03/11 08:21:34;;;;;;;17.90;15.07;;;;;;;;;;5055408;28;20183;-77
2021/03/11 08:24:00;;;;;;;18.43;13.80;;;;;;;;;;5054961;28;20206;-78
2021/03/11 08:26:38;;;;;;;28.47;24.67;;;;;;;;;;5055382;28;20243;-79
2021/03/11 08:29:28;;;;;;;21.37;18.20;;;;;;;;;;5056436;28;20186;-78
2021/03/11 08:31:54;;;;;;;10.30;6.97;;;;;;;;;;5049573;28;20247;-79
2021/03/11 08:34:36;;;;;;;13.33;10.13;;;;;;;;;;5055524;28;20195;-78
2021/03/11 08:37:21;;;;;;;10.90;7.80;;;;;;;;;;5051717;28;20228;-78
2021/03/11 08:39:47;;;;;;;11.30;7.13;;;;;;;;;;5035031;28;20186;-79
2021/03/11 08:42:32;;;;;;;9.57;5.93;;;;;;;;;;5034932;28;20179;-78
2021/03/11 08:44:58;;;;;;;9.87;5.33;;;;;;;;;;5035700;28;20250;-77
2021/03/11 08:47:24;;;;;;;8.80;6.53;;;;;;;;;;5034304;28;20694;-78
2021/03/11 08:49:50;;;;;;;10.60;8.80;;;;;;;;;;5034240;28;20183;-79
2021/03/11 08:52:42;;;;;;;5.70;4.33;;;;;;;;;;5036370;28;20182;-77
2021/03/11 08:55:26;;;;;;;8.20;4.80;;;;;;;;;;5040595;28;20201;-80
2021/03/11 08:57:52;;;;;;;9.23;5.90;;;;;;;;;;5054937;28;20206;-79
2021/03/11 09:00:19;;;;;;;41.10;23.27;;;;;;;;;;5055376;28;20186;-78
2021/03/11 09:02:46;;;;;;;8.53;5.30;;;;;;;;;;5055206;28;20190;-79
2021/03/11 09:05:12;;;;;;;13.43;9.97;;;;;;;;;;5055321;28;20653;-77
2021/03/11 09:07:39;;;;;;;7.53;5.53;;;;;;;;;;5054848;28;20217;-78
2021/03/11 09:10:06;;;;;;;6.43;5.00;;;;;;;;;;5055266;28;20180;-79
2021/03/11 09:12:40;;;;;;;10.87;8.37;;;;;;;;;;5066260;28;20205;-79
2021/03/11 09:15:07;;;;;;;6.60;4.90;;;;;;;;;;5060219;28;20178;-78
2021/03/11 09:17:34;;;;;;;6.33;4.03;;;;;;;;;;5059708;28;20205;-78
2021/03/11 09:20:01;;;;;;;7.60;4.60;;;;;;;;;;5059379;28;20831;-78
2021/03/11 09:22:30;;;;;;;6.27;3.93;;;;;;;;;;5058192;28;20198;-78
2021/03/11 09:25:08;;;;;;;6.73;4.60;;;;;;;;;;5058294;28;20182;-78
2021/03/11 09:27:36;;;;;;;7.00;4.53;;;;;;;;;;5060633;28;20200;-79
2021/03/11 09:30:03;;;;;;;7.13;5.00;;;;;;;;;;5060879;28;20200;-79
2021/03/11 09:32:29;;;;;;;7.80;5.73;;;;;;;;;;5059785;28;20205;-79
2021/03/11 09:34:55;;;;;;;5.67;3.17;;;;;;;;;;5060267;28;20189;-79
2021/03/11 09:37:40;;;;;;;7.00;3.70;;;;;;;;;;5059423;28;20197;-79
2021/03/11 09:40:07;;;;;;;6.00;3.43;;;;;;;;;;5060416;28;20220;-79
2021/03/11 09:42:33;;;;;;;8.17;2.97;;;;;;;;;;5059134;28;20185;-80
2021/03/11 09:44:58;;;;;;;6.13;3.63;;;;;;;;;;5060830;28;20271;-79
2021/03/11 09:47:28;;;;;;;6.33;3.00;;;;;;;;;;5059969;28;20211;-79
2021/03/11 09:50:07;;;;;;;6.87;3.00;;;;;;;;;;5062241;28;20181;-79
2021/03/11 09:52:34;;;;;;;5.23;2.40;;;;;;;;;;5058923;28;20226;-81
2021/03/11 09:55:00;;;;;;;6.80;2.90;;;;;;;;;;5058236;28;20184;-79
2021/03/11 09:57:27;;;;;;;5.67;2.13;;;;;;;;;;5057001;28;20202;-80
2021/03/11 09:59:53;;;;;;;8.30;2.90;;;;;;;;;;5058015;28;20178;-80
2021/03/11 10:02:19;;;;;;;21.23;10.33;;;;;;;;;;5058152;28;20176;-80
2021/03/11 10:04:45;;;;;;;41.10;23.17;;;;;;;;;;5057892;28;20178;-79
2021/03/11 10:07:14;;;;;;;64.43;33.33;;;;;;;;;;5057332;28;20272;-79
2021/03/11 10:09:41;;;;;;;25.07;13.53;;;;;;;;;;5060522;28;20179;-79
2021/03/11 10:12:07;;;;;;;13.03;7.67;;;;;;;;;;5057215;28;20212;-81
2021/03/11 10:14:33;;;;;;;9.73;4.33;;;;;;;;;;5040620;28;20182;-79
2021/03/11 10:16:59;;;;;;;10.90;5.80;;;;;;;;;;5040325;28;20203;-80
2021/03/11 10:19:28;;;;;;;20.50;10.23;;;;;;;;;;5037477;28;20182;-79
2021/03/11 10:21:55;;;;;;;22.17;9.97;;;;;;;;;;5051680;28;20193;-80
2021/03/11 10:24:37;;;;;;;11.77;5.77;;;;;;;;;;5056179;28;20471;-79
2021/03/11 10:27:03;;;;;;;10.47;4.43;;;;;;;;;;5039999;28;20194;-79
2021/03/11 10:29:30;;;;;;;14.27;8.07;;;;;;;;;;5039069;28;20551;-79
2021/03/11 10:32:00;;;;;;;8.33;2.70;;;;;;;;;;5039222;28;20183;-80
2021/03/11 10:34:26;;;;;;;10.77;3.23;;;;;;;;;;5039511;28;20209;-80
2021/03/11 10:36:59;;;;;;;9.30;4.03;;;;;;;;;;5039320;28;20202;-79
2021/03/11 10:39:25;;;;;;;9.80;2.80;;;;;;;;;;5038644;28;20235;-79
2021/03/11 10:42:06;;;;;;;10.03;3.10;;;;;;;;;;5039836;28;20183;-79
2021/03/11 10:44:35;;;;;;;13.27;3.90;;;;;;;;;;5040200;28;20179;-79
2021/03/11 10:47:14;;;;;;;14.03;4.03;;;;;;;;;;5039636;28;20276;-79
2021/03/11 10:49:42;;;;;;;9.03;3.87;;;;;;;;;;5040989;28;20669;-78
2021/03/11 10:52:08;;;;;;;11.37;3.83;;;;;;;;;;5041141;28;20229;-79
2021/03/11 10:54:34;;;;;;;14.83;4.00;;;;;;;;;;5040696;28;20183;-80
2021/03/11 10:57:06;;;;;;;16.53;4.47;;;;;;;;;;5032020;28;20533;-79
2021/03/11 10:59:53;;;;;;;10.93;4.30;;;;;;;;;;5032289;28;20179;-78
2021/03/11 11:02:19;;;;;;;13.53;4.40;;;;;;;;;;5018762;28;20194;-79
2021/03/11 11:04:45;;;;;;;20.73;7.87;;;;;;;;;;5032527;28;20178;-78
2021/03/11 11:07:11;;;;;;;11.10;3.50;;;;;;;;;;5033245;28;20207;-79
2021/03/11 11:09:39;;;;;;;47.40;21.00;;;;;;;;;;5033663;28;20186;-79
2021/03/11 11:12:06;;;;;;;16.77;6.43;;;;;;;;;;5043571;28;20635;-77
2021/03/11 11:14:32;;;;;;;26.77;7.63;;;;;;;;;;5053008;28;20185;-78
2021/03/11 11:16:58;;;;;;;14.20;6.57;;;;;;;;;;5053152;28;20293;-79
2021/03/11 11:19:24;;;;;;;25.37;9.17;;;;;;;;;;5050681;28;20251;-77
2021/03/11 11:21:50;;;;;;;24.43;10.60;;;;;;;;;;5048255;28;20190;-77
2021/03/11 11:24:16;;;;;;;60.03;30.87;;;;;;;;;;5049912;28;20178;-78
2021/03/11 11:26:42;;;;;;;22.17;9.07;;;;;;;;;;5046867;28;20195;-77
2021/03/11 11:29:09;;;;;;;14.10;4.70;;;;;;;;;;5030572;28;20181;-78
2021/03/11 11:31:34;;;;;;;52.23;23.77;;;;;;;;;;5041699;28;20178;-77
2021/03/11 11:34:00;;;;;;;21.00;5.97;;;;;;;;;;5050435;28;20697;-77
2021/03/11 11:36:26;;;;;;;31.23;12.47;;;;;;;;;;5050004;28;20639;-76
2021/03/11 11:38:53;;;;;;;55.93;25.63;;;;;;;;;;5043378;28;20557;-77
2021/03/11 11:41:19;;;;;;;19.23;7.37;;;;;;;;;;5049393;28;20215;-77
2021/03/11 11:43:45;;;;;;;14.27;6.67;;;;;;;;;;5050192;28;20193;-77
2021/03/11 11:46:11;;;;;;;11.10;3.60;;;;;;;;;;5050251;28;20592;-76
2021/03/11 11:48:37;;;;;;;15.27;3.63;;;;;;;;;;5050709;28;20268;-76
2021/03/11 11:51:03;;;;;;;10.37;3.20;;;;;;;;;;5052364;28;20182;-79
2021/03/11 11:53:29;;;;;;;11.30;3.00;;;;;;;;;;5050784;28;20198;-78
2021/03/11 11:55:55;;;;;;;9.47;2.93;;;;;;;;;;5052861;28;20226;-79
2021/03/11 11:58:21;;;;;;;13.97;2.63;;;;;;;;;;5052809;28;20650;-81
2021/03/11 12:00:47;;;;;;;15.03;2.60;;;;;;;;;;5046767;28;20179;-79
2021/03/11 12:03:13;;;;;;;16.77;2.83;;;;;;;;;;5049141;28;20243;-77
2021/03/11 12:05:39;;;;;;;13.57;2.40;;;;;;;;;;5044044;28;20186;-79
2021/03/11 12:08:05;;;;;;;13.43;3.23;;;;;;;;;;5056988;28;20708;-78
2021/03/11 12:10:31;;;;;;;12.30;2.20;;;;;;;;;;5048732;28;20273;-78
2021/03/11 12:12:57;;;;;;;10.37;2.27;;;;;;;;;;5051925;28;20232;-78
2021/03/11 12:15:23;;;;;;;13.10;2.57;;;;;;;;;;5053213;28;20177;-78
2021/03/11 12:17:49;;;;;;;9.90;2.23;;;;;;;;;;5057237;28;20265;-78
2021/03/11 12:20:15;;;;;;;13.70;2.13;;;;;;;;;;5054361;28;20268;-81
2021/03/11 12:22:41;;;;;;;13.90;2.37;;;;;;;;;;5054994;28;20178;-79
2021/03/11 12:25:07;;;;;;;9.50;1.93;;;;;;;;;;5055192;28;20182;-78
2021/03/11 12:27:33;;;;;;;13.60;2.43;;;;;;;;;;5053695;28;20210;-76
2021/03/11 12:30:00;;;;;;;10.03;2.20;;;;;;;;;;5066978;28;20212;-77
2021/03/11 12:32:26;;;;;;;14.43;2.80;;;;;;;;;;5043951;28;20209;-77
2021/03/11 12:34:52;;;;;;;11.37;2.07;;;;;;;;;;5059678;28;20183;-78
2021/03/11 12:37:18;;;;;;;10.13;2.43;;;;;;;;;;5060175;28;20781;-77
2021/03/11 12:39:44;;;;;;;5.53;1.40;;;;;;;;;;5054515;28;20231;-77
2021/03/11 12:42:10;;;;;;;11.50;2.50;;;;;;;;;;5054019;28;20665;-77
2021/03/11 12:44:36;;;;;;;9.43;2.00;;;;;;;;;;5050952;28;20194;-78
2021/03/11 12:47:02;;;;;;;5.97;1.50;;;;;;;;;;5034972;28;20207;-77
2021/03/11 12:49:28;;;;;;;11.77;2.37;;;;;;;;;;5053864;28;20189;-76
2021/03/11 12:51:54;;;;;;;10.30;1.87;;;;;;;;;;5054011;28;20669;-77
2021/03/11 12:54:20;;;;;;;10.57;2.40;;;;;;;;;;5053679;28;20233;-77
2021/03/11 12:56:46;;;;;;;13.83;2.23;;;;;;;;;;5053535;28;20285;-78
2021/03/11 12:59:12;;;;;;;8.07;1.90;;;;;;;;;;5045043;28;20178;-77
2021/03/11 13:01:38;;;;;;;9.13;2.40;;;;;;;;;;5053657;28;20181;-76
2021/03/11 13:04:04;;;;;;;12.47;2.17;;;;;;;;;;5049701;28;20210;-77
2021/03/11 13:06:30;;;;;;;14.70;2.83;;;;;;;;;;5039740;28;20313;-76
2021/03/11 13:08:56;;;;;;;9.27;1.50;;;;;;;;;;5034292;28;20229;-77
2021/03/11 13:11:24;;;;;;;9.50;1.87;;;;;;;;;;5053428;28;20182;-76
2021/03/11 13:13:50;;;;;;;7.80;1.73;;;;;;;;;;5040409;28;20213;-77
2021/03/11 13:16:16;;;;;;;9.37;1.87;;;;;;;;;;5053225;28;20544;-76
2021/03/11 13:18:42;;;;;;;11.30;1.80;;;;;;;;;;5060642;28;20182;-77
2021/03/11 13:21:08;;;;;;;7.77;1.77;;;;;;;;;;5051117;28;20182;-76
2021/03/11 13:23:34;;;;;;;9.13;1.90;;;;;;;;;;5045211;28;20205;-76
2021/03/11 13:25:59;;;;;;;11.87;1.97;;;;;;;;;;5052516;28;20209;-76
2021/03/11 13:28:25;;;;;;;11.87;2.10;;;;;;;;;;5051239;28;20728;-76
2021/03/11 13:30:52;;;;;;;8.03;1.87;;;;;;;;;;5053103;28;20654;-76
2021/03/11 13:33:18;;;;;;;6.40;1.60;;;;;;;;;;5053006;28;20194;-76
2021/03/11 13:35:44;;;;;;;5.93;1.70;;;;;;;;;;5052724;28;20225;-77
2021/03/11 13:38:10;;;;;;;8.03;1.60;;;;;;;;;;5052721;28;20174;-77
2021/03/11 13:40:36;;;;;;;6.67;1.40;;;;;;;;;;5051996;28;20194;-76
2021/03/11 13:43:02;;;;;;;5.37;1.53;;;;;;;;;;5051892;28;20647;-76
2021/03/11 13:45:29;;;;;;;9.03;1.87;;;;;;;;;;5052383;28;20735;-77
2021/03/11 13:47:55;;;;;;;8.33;1.80;;;;;;;;;;5053280;28;20269;-77
2021/03/11 13:50:21;;;;;;;9.53;1.80;;;;;;;;;;5053356;28;20190;-78
2021/03/11 13:52:47;;;;;;;13.57;2.00;;;;;;;;;;5053425;28;20730;-77
2021/03/11 13:55:13;;;;;;;14.83;2.90;;;;;;;;;;5053313;28;20217;-78
2021/03/11 13:57:39;;;;;;;11.40;2.30;;;;;;;;;;5053883;28;20279;-77
2021/03/11 14:00:09;;;;;;;8.67;2.03;;;;;;;;;;5053703;28;20617;-77
2021/03/11 14:02:38;;;;;;;11.23;2.20;;;;;;;;;;5052462;28;20652;-77
2021/03/11 14:05:07;;;;;;;9.70;2.07;;;;;;;;;;5057985;28;20192;-78
2021/03/11 14:07:33;;;;;;;7.93;1.50;;;;;;;;;;5053497;28;20225;-77
2021/03/11 14:09:59;;;;;;;12.17;2.10;;;;;;;;;;5053738;28;20254;-77
2021/03/11 14:12:25;;;;;;;8.67;1.60;;;;;;;;;;5053432;28;20176;-77
2021/03/11 14:14:52;;;;;;;12.03;2.00;;;;;;;;;;5053875;28;20171;-77
2021/03/11 14:17:18;;;;;;;11.60;2.47;;;;;;;;;;5053789;28;20589;-77
2021/03/11 14:19:44;;;;;;;14.07;2.37;;;;;;;;;;5053026;28;20595;-77
2021/03/11 14:22:10;;;;;;;18.20;2.60;;;;;;;;;;5053171;28;20179;-77
2021/03/11 14:24:36;;;;;;;10.33;2.03;;;;;;;;;;5052520;28;20182;-77
2021/03/11 14:27:01;;;;;;;10.40;2.00;;;;;;;;;;5052678;28;20209;-77
2021/03/11 14:29:27;;;;;;;12.43;2.00;;;;;;;;;;5052412;28;20181;-77